Terminal Aerodrome Forecast
Issued by NWS Paducah, KY

Home | Current Version | Previous Version | Text Only | Print | Product List | Glossary On
Versions: 1 2 3 4 5 6 7 8 9 10 11 12 13 14 15 16 17 18
907
FTUS43 KPAH 010520
TAFEVV
TAF
KEVV 010520Z 0106/0206 18003KT P6SM VCSH SCT050 BKN080
     FM010900 00000KT 5SM BR SCT250
     FM011400 22005KT P6SM BKN025
     FM011700 23008KT P6SM BKN035
     FM012300 26008KT P6SM VCSH BKN040
     FM020400 30007KT P6SM FEW050 SCT150=

USA.gov is the U.S. government's official web portal to all federal, state and local government web resources and services.